Time;durP1;ratioP1;P1;durP2;ratioP2;P2;SDS_P1;SDS_P2;PMS_P1;PMS_P2;Temp;Humidity;BMP_temperature;BMP_pressure;BME280_temperature;BME280_humidity;BME280_pressure;Samples;Min_cycle;Max_cycle;Signal;HPM_P1;HPM_P2
2022/06/17 06:03:39;;;;;;;;;;;23.70;99.90;;;;;;5449499;23;19922;-78
2022/06/17 06:06:06;;;;;;;;;;;23.70;99.90;;;;;;4995233;28;20390;-78
2022/06/17 06:08:33;;;;;;;;;;;23.70;99.90;;;;;;4995344;28;19928;-78
2022/06/17 06:10:59;;;;;;;;;;;23.70;99.90;;;;;;4994728;28;19921;-77
2022/06/17 06:13:26;;;;;;;;;;;23.70;99.90;;;;;;4994833;28;19928;-78
2022/06/17 06:15:54;;;;;;;;;;;23.70;99.90;;;;;;5049351;23;19922;-78
2022/06/17 06:18:23;;;;;;;;;;;23.70;99.90;;;;;;4979088;28;19957;-78
2022/06/17 06:20:51;;;;;;;;;;;23.70;99.90;;;;;;4977928;28;20020;-77
2022/06/17 06:23:18;;;;;;;;;;;23.70;99.90;;;;;;4976247;28;20269;-77
2022/06/17 06:25:45;;;;;;;;;;;23.70;99.90;;;;;;4975241;28;20004;-78
2022/06/17 06:28:12;;;;;;;;;;;23.70;99.90;;;;;;4975365;28;20325;-77
2022/06/17 06:30:40;;;;;;;;;;;23.70;99.90;;;;;;4975389;28;20020;-78
2022/06/17 06:33:06;;;;;;;;;;;23.70;99.90;;;;;;4974869;28;20373;-78
2022/06/17 06:35:34;;;;;;;;;;;23.70;99.90;;;;;;4975283;28;20025;-78
2022/06/17 06:38:02;;;;;;;;;;;23.70;99.90;;;;;;4975344;28;20009;-79
2022/06/17 06:40:29;;;;;;;;;;;23.80;99.90;;;;;;4975691;28;19922;-79
2022/06/17 06:42:56;;;;;;;;;;;23.70;99.90;;;;;;4976416;28;19922;-80
2022/06/17 06:45:24;;;;;;;;;;;23.70;99.90;;;;;;4979777;28;20017;-80
2022/06/17 06:47:52;;;;;;;;;;;23.70;99.90;;;;;;4979645;28;20401;-80
2022/06/17 06:50:24;;;;;;;;;;;23.60;99.90;;;;;;4979712;28;19922;-80
2022/06/17 06:52:50;;;;;;;;;;;23.60;99.90;;;;;;4979160;28;19922;-79
2022/06/17 06:55:19;;;;;;;;;;;23.60;99.90;;;;;;4979034;28;19929;-79
2022/06/17 06:57:46;;;;;;;;;;;23.50;99.90;;;;;;4978912;28;20030;-79
2022/06/17 07:00:14;;;;;;;;;;;23.50;99.90;;;;;;4979009;28;20016;-77
2022/06/17 07:02:41;;;;;;;;;;;23.50;99.90;;;;;;4978657;28;20408;-79
2022/06/17 07:05:08;;;;;;;;;;;23.50;99.90;;;;;;4978949;28;19984;-79
2022/06/17 07:07:35;;;;;;;;;;;23.50;99.90;;;;;;4978880;28;20005;-79
2022/06/17 07:10:01;;;;;;;;;;;23.50;99.90;;;;;;4978729;28;20454;-77
2022/06/17 07:12:32;;;;;;;;;;;23.50;99.90;;;;;;4978691;28;20017;-77
2022/06/17 07:14:59;;;;;;;;;;;23.50;99.90;;;;;;4978735;28;19922;-76
2022/06/17 07:17:25;;;;;;;;;;;23.50;99.90;;;;;;4979182;28;20005;-79
2022/06/17 07:19:52;;;;;;;;;;;23.50;99.90;;;;;;4979551;28;19944;-79
2022/06/17 07:22:20;;;;;;;;;;;23.50;99.90;;;;;;4979407;28;19980;-79
2022/06/17 07:24:47;;;;;;;;;;;23.50;99.90;;;;;;4980173;28;19922;-77
2022/06/17 07:27:14;;;;;;;;;;;23.50;99.80;;;;;;4978423;28;20013;-76
2022/06/17 07:29:42;;;;;;;;;;;23.50;99.70;;;;;;4978182;28;20389;-75
2022/06/17 07:32:08;;;;;;;;;;;23.50;99.40;;;;;;4978358;28;19968;-74
2022/06/17 07:34:35;;;;;;;;;;;23.50;99.40;;;;;;4978234;28;19929;-74
2022/06/17 07:39:58;;;;;;;;;;;23.50;99.10;;;;;;4945795;28;19918;-74
2022/06/17 07:42:26;;;;;;;;;;;23.50;98.90;;;;;;4978554;28;19926;-78
2022/06/17 07:44:54;;;;;;;;;;;23.50;98.70;;;;;;4979605;28;19922;-80
2022/06/17 07:47:22;;;;;;;;;;;23.50;98.60;;;;;;4980006;28;19980;-82
2022/06/17 07:49:49;;;;;;;;;;;23.50;98.30;;;;;;4980078;28;20445;-81
2022/06/17 07:52:15;;;;;;;;;;;23.50;98.10;;;;;;4978748;28;20365;-80
2022/06/17 07:54:42;;;;;;;;;;;23.50;98.00;;;;;;4979631;28;20396;-80
2022/06/17 07:57:11;;;;;;;;;;;23.50;97.80;;;;;;4979830;28;19945;-79
2022/06/17 07:59:38;;;;;;;;;;;23.50;97.70;;;;;;4979499;28;19969;-79
2022/06/17 08:02:06;;;;;;;;;;;23.50;97.30;;;;;;4980247;28;19922;-80
2022/06/17 08:04:34;;;;;;;;;;;23.50;97.00;;;;;;4980212;28;20016;-80
2022/06/17 08:07:01;;;;;;;;;;;23.50;97.00;;;;;;4980611;28;19926;-82
2022/06/17 08:09:28;;;;;;;;;;;23.50;96.70;;;;;;4980695;28;19921;-81
2022/06/17 08:11:55;;;;;;;;;;;23.50;96.50;;;;;;4984267;28;20381;-82
2022/06/17 08:14:22;;;;;;;;;;;23.50;96.30;;;;;;4981949;28;19973;-81
2022/06/17 08:16:48;;;;;;;;;;;23.50;96.10;;;;;;4983099;28;19949;-81
2022/06/17 08:19:16;;;;;;;;;;;23.50;95.90;;;;;;4984663;28;20009;-80
2022/06/17 08:21:43;;;;;;;;;;;23.50;95.70;;;;;;4981173;28;20424;-80
2022/06/17 08:24:10;;;;;;;;;;;23.50;95.50;;;;;;4980225;28;19989;-81
2022/06/17 08:26:38;;;;;;;;;;;23.50;95.20;;;;;;4980444;28;20369;-81
2022/06/17 08:29:05;;;;;;;;;;;23.50;95.00;;;;;;4980953;28;19926;-80
2022/06/17 08:31:34;;;;;;;;;;;23.50;94.70;;;;;;4979219;28;19969;-80
2022/06/17 08:34:01;;;;;;;;;;;23.50;94.50;;;;;;4979670;28;19977;-79
2022/06/17 08:36:29;;;;;;;;;;;23.50;94.40;;;;;;4980331;28;20017;-83
2022/06/17 08:39:00;;;;;;;;;;;23.60;94.20;;;;;;4981119;28;20009;-79
2022/06/17 08:41:27;;;;;;;;;;;23.50;94.00;;;;;;4982205;28;19965;-79
2022/06/17 08:44:12;;;;;;;;;;;23.50;93.80;;;;;;4981577;28;20008;-79
2022/06/17 08:46:48;;;;;;;;;;;23.50;93.70;;;;;;4980572;28;19922;-79
2022/06/17 08:49:21;;;;;;;;;;;23.60;93.60;;;;;;4981363;28;19926;-80
2022/06/17 08:51:59;;;;;;;;;;;23.60;93.50;;;;;;4981346;28;20004;-79
2022/06/17 08:54:31;;;;;;;;;;;23.60;93.30;;;;;;4981798;28;20433;-80
2022/06/17 08:57:01;;;;;;;;;;;23.60;93.20;;;;;;4981331;28;19976;-79
2022/06/17 08:59:34;;;;;;;;;;;23.60;93.00;;;;;;4981632;28;19922;-80
2022/06/17 09:02:03;;;;;;;;;;;23.60;92.80;;;;;;4980983;28;19953;-80
2022/06/17 09:04:36;;;;;;;;;;;23.60;92.70;;;;;;4980650;28;20021;-80
2022/06/17 09:07:11;;;;;;;;;;;23.60;92.60;;;;;;4980847;28;19929;-79
2022/06/17 09:09:46;;;;;;;;;;;23.60;92.40;;;;;;4980304;28;19954;-79
2022/06/17 09:12:15;;;;;;;;;;;23.70;92.20;;;;;;4980452;28;19926;-79
2022/06/17 09:14:46;;;;;;;;;;;23.70;92.10;;;;;;4980393;28;19969;-79
2022/06/17 09:17:16;;;;;;;;;;;23.70;92.10;;;;;;4979966;28;20357;-79
2022/06/17 09:19:45;;;;;;;;;;;23.60;91.90;;;;;;4980026;28;19922;-79
2022/06/17 09:22:18;;;;;;;;;;;23.70;91.80;;;;;;4979739;28;19928;-80
2022/06/17 09:24:46;;;;;;;;;;;23.60;91.60;;;;;;4981122;28;20392;-80
2022/06/17 09:27:16;;;;;;;;;;;23.60;91.50;;;;;;4980576;28;19929;-79
2022/06/17 09:29:45;;;;;;;;;;;23.60;91.30;;;;;;4978397;28;19922;-78
2022/06/17 09:32:15;;;;;;;;;;;23.70;91.20;;;;;;4978624;28;19929;-79
2022/06/17 09:34:45;;;;;;;;;;;23.60;90.90;;;;;;4978546;28;19928;-79
2022/06/17 09:37:14;;;;;;;;;;;23.70;90.80;;;;;;4979586;28;19926;-79
2022/06/17 09:39:45;;;;;;;;;;;23.60;90.60;;;;;;4979474;28;19922;-80
2022/06/17 09:42:15;;;;;;;;;;;23.70;90.50;;;;;;4980500;28;20382;-79
2022/06/17 09:44:44;;;;;;;;;;;23.60;90.20;;;;;;4980599;28;20361;-80
2022/06/17 09:47:14;;;;;;;;;;;23.60;90.00;;;;;;4980297;28;20005;-79
2022/06/17 09:49:42;;;;;;;;;;;23.60;89.50;;;;;;4979872;28;20374;-79
2022/06/17 09:52:11;;;;;;;;;;;23.60;89.10;;;;;;4979986;28;19922;-79
2022/06/17 09:54:41;;;;;;;;;;;23.60;89.10;;;;;;4979970;28;19921;-79
2022/06/17 09:57:11;;;;;;;;;;;23.60;88.50;;;;;;4977883;28;20012;-78
2022/06/17 09:59:41;;;;;;;;;;;23.60;87.90;;;;;;4978635;28;19953;-79
2022/06/17 10:02:18;;;;;;;;;;;23.60;87.40;;;;;;4978710;28;19928;-79
2022/06/17 10:04:44;;;;;;;;;;;23.60;87.00;;;;;;4978900;28;20266;-80
2022/06/17 10:07:17;;;;;;;;;;;23.60;86.50;;;;;;4979582;28;20453;-80
2022/06/17 10:09:48;;;;;;;;;;;23.60;86.10;;;;;;4978555;28;19922;-80
2022/06/17 10:12:22;;;;;;;;;;;23.60;85.60;;;;;;4979579;28;20020;-79
2022/06/17 10:14:57;;;;;;;;;;;23.60;85.20;;;;;;4978881;28;19973;-79
2022/06/17 10:20:24;;;;;;;;;;;23.60;84.20;;;;;;4979293;28;19925;-79
2022/06/17 10:22:55;;;;;;;;;;;23.60;83.50;;;;;;4979993;28;19977;-80
2022/06/17 10:25:31;;;;;;;;;;;23.60;83.40;;;;;;4978897;28;20361;-79
2022/06/17 10:28:11;;;;;;;;;;;23.60;83.40;;;;;;4979525;28;20012;-79
2022/06/17 10:30:41;;;;;;;;;;;23.60;82.70;;;;;;4979011;28;19989;-79
2022/06/17 10:33:10;;;;;;;;;;;23.60;82.20;;;;;;4979303;28;20013;-79
2022/06/17 10:35:38;;;;;;;;;;;23.60;81.80;;;;;;4979942;28;19980;-79
2022/06/17 10:38:07;;;;;;;;;;;23.60;81.40;;;;;;4979946;28;20018;-79
2022/06/17 10:40:37;;;;;;;;;;;23.60;81.00;;;;;;4979355;28;19969;-79
2022/06/17 10:43:07;;;;;;;;;;;23.60;80.60;;;;;;4979560;28;20016;-79
2022/06/17 10:45:34;;;;;;;;;;;23.60;80.30;;;;;;4978520;28;19922;-79
2022/06/17 10:48:02;;;;;;;;;;;23.70;80.00;;;;;;4978745;28;20005;-79
2022/06/17 10:50:31;;;;;;;;;;;23.60;79.50;;;;;;4978094;28;19922;-80
2022/06/17 10:53:01;;;;;;;;;;;23.60;79.10;;;;;;4977517;28;20352;-79
2022/06/17 10:55:30;;;;;;;;;;;23.60;78.70;;;;;;4976767;28;19928;-79
2022/06/17 10:58:09;;;;;;;;;;;23.60;78.40;;;;;;4978254;28;20333;-78
2022/06/17 11:00:42;;;;;;;;;;;23.70;78.10;;;;;;4978228;28;19932;-79
2022/06/17 11:03:21;;;;;;;;;;;23.70;77.70;;;;;;4979979;28;19965;-79
2022/06/17 11:05:53;;;;;;;;;;;23.70;77.70;;;;;;4980446;28;19922;-79
2022/06/17 11:08:21;;;;;;;;;;;23.70;77.40;;;;;;4980898;28;19922;-79
2022/06/17 11:10:51;;;;;;;;;;;23.70;76.90;;;;;;4978192;28;20421;-79
2022/06/17 11:13:20;;;;;;;;;;;23.70;76.30;;;;;;4979277;28;20417;-79
2022/06/17 11:15:48;;;;;;;;;;;23.70;76.00;;;;;;4979507;28;20448;-79
2022/06/17 11:18:17;;;;;;;;;;;23.70;75.70;;;;;;4978541;28;20002;-79
2022/06/17 11:20:53;;;;;;;;;;;23.70;75.40;;;;;;4979974;28;19929;-80
2022/06/17 11:23:21;;;;;;;;;;;23.70;75.00;;;;;;4980173;28;19921;-80
2022/06/17 11:25:48;;;;;;;;;;;23.70;74.60;;;;;;4979711;28;19922;-79
2022/06/17 11:28:22;;;;;;;;;;;23.70;74.20;;;;;;4980199;28;19969;-79
2022/06/17 11:30:53;;;;;;;;;;;23.70;73.80;;;;;;4984240;28;19946;-80
2022/06/17 11:33:22;;;;;;;;;;;23.70;73.40;;;;;;4984509;28;19929;-80
2022/06/17 11:35:58;;;;;;;;;;;23.70;73.00;;;;;;4984074;28;19922;-79
2022/06/17 11:38:25;;;;;;;;;;;23.70;72.60;;;;;;4984542;28;19929;-81
2022/06/17 11:40:55;;;;;;;;;;;23.70;72.20;;;;;;4984384;28;19969;-82
2022/06/17 11:43:31;;;;;;;;;;;23.70;71.70;;;;;;4984044;28;19928;-80
2022/06/17 11:46:06;;;;;;;;;;;23.70;71.80;;;;;;4984541;28;19926;-81
2022/06/17 11:48:35;;;;;;;;;;;23.70;71.70;;;;;;4985008;28;19922;-77
2022/06/17 11:51:05;;;;;;;;;;;23.70;71.30;;;;;;4985330;28;20021;-81
2022/06/17 11:53:43;;;;;;;;;;;23.70;70.80;;;;;;4986622;28;19930;-77
2022/06/17 11:56:12;;;;;;;;;;;23.80;70.60;;;;;;4985510;28;20297;-82
2022/06/17 11:58:54;;;;;;;;;;;23.70;70.20;;;;;;4986640;28;20008;-78
2022/06/17 12:01:24;;;;;;;;;;;23.80;70.10;;;;;;4984523;28;19973;-77
2022/06/17 12:03:51;;;;;;;;;;;23.80;69.70;;;;;;4983061;28;19933;-81
2022/06/17 12:06:27;;;;;;;;;;;23.80;69.30;;;;;;4980593;28;19961;-77
2022/06/17 12:08:56;;;;;;;;;;;23.80;69.00;;;;;;4978907;28;19922;-77
2022/06/17 12:11:28;;;;;;;;;;;23.80;68.70;;;;;;4977939;28;19973;-78
2022/06/17 12:13:59;;;;;;;;;;;23.80;68.50;;;;;;4978350;28;20013;-77
2022/06/17 12:16:32;;;;;;;;;;;23.80;68.20;;;;;;4977269;28;19922;-78
2022/06/17 12:19:00;;;;;;;;;;;23.80;68.00;;;;;;4977590;28;19922;-77
2022/06/17 12:21:31;;;;;;;;;;;23.80;67.60;;;;;;4977587;28;19922;-77
2022/06/17 12:24:01;;;;;;;;;;;23.90;67.40;;;;;;4977530;28;19926;-77
2022/06/17 12:26:30;;;;;;;;;;;23.80;67.10;;;;;;4978060;28;19930;-78
2022/06/17 12:29:01;;;;;;;;;;;23.80;66.70;;;;;;4977444;28;19934;-77
2022/06/17 12:31:31;;;;;;;;;;;23.80;66.40;;;;;;4977015;28;19933;-77
2022/06/17 12:34:04;;;;;;;;;;;23.80;65.90;;;;;;5006805;23;19926;-81
2022/06/17 12:36:33;;;;;;;;;;;23.80;65.80;;;;;;5001636;28;20339;-79
2022/06/17 12:39:02;;;;;;;;;;;23.80;65.60;;;;;;4998819;28;19928;-80
2022/06/17 12:41:34;;;;;;;;;;;23.80;65.10;;;;;;5000082;28;20004;-79
2022/06/17 12:44:07;;;;;;;;;;;23.90;64.90;;;;;;5001536;28;20016;-79
2022/06/17 12:46:37;;;;;;;;;;;23.90;64.70;;;;;;5001709;28;20028;-79
2022/06/17 12:54:39;;;;;;;;;;;23.90;64.10;;;;;;5001677;28;19945;-79
2022/06/17 12:57:09;;;;;;;;;;;23.90;63.90;;;;;;5002570;28;20004;-79
2022/06/17 12:59:43;;;;;;;;;;;24.00;63.70;;;;;;5003500;28;20008;-79
2022/06/17 13:02:12;;;;;;;;;;;24.00;63.60;;;;;;5003027;28;19990;-79
2022/06/17 13:04:59;;;;;;;;;;;24.00;63.40;;;;;;5002219;28;19997;-79
2022/06/17 13:07:31;;;;;;;;;;;24.00;63.20;;;;;;5001836;28;19922;-79
2022/06/17 13:10:39;;;;;;;;;;;24.00;63.00;;;;;;5001755;28;20544;-80
2022/06/17 13:12:50;;;;;;;;;;;24.10;63.00;;;;;;5001980;28;20387;-79
2022/06/17 13:15:21;;;;;;;;;;;24.10;62.90;;;;;;5002085;28;19995;-80
2022/06/17 13:17:54;;;;;;;;;;;24.10;62.70;;;;;;4998127;28;19932;-79
2022/06/17 13:20:25;;;;;;;;;;;24.10;62.60;;;;;;4999243;28;19945;-79
2022/06/17 13:22:55;;;;;;;;;;;24.10;62.50;;;;;;4999643;28;19928;-79
2022/06/17 13:25:27;;;;;;;;;;;24.10;62.40;;;;;;4998405;28;19981;-79
2022/06/17 13:27:57;;;;;;;;;;;24.10;62.20;;;;;;4999251;28;20345;-79
2022/06/17 13:30:27;;;;;;;;;;;24.10;62.10;;;;;;4999976;28;19921;-79
2022/06/17 13:32:57;;;;;;;;;;;24.10;62.00;;;;;;5001158;28;19922;-79
2022/06/17 13:35:26;;;;;;;;;;;24.20;61.90;;;;;;5000879;28;19921;-79
2022/06/17 13:37:56;;;;;;;;;;;24.20;61.70;;;;;;4999888;28;19921;-79
2022/06/17 13:40:26;;;;;;;;;;;24.10;61.40;;;;;;5000581;28;20436;-78
2022/06/17 13:42:54;;;;;;;;;;;24.20;61.40;;;;;;5000907;28;19928;-78
2022/06/17 13:45:26;;;;;;;;;;;24.20;61.30;;;;;;5001793;28;20020;-78
2022/06/17 13:47:59;;;;;;;;;;;24.20;61.10;;;;;;5001238;28;19965;-78
2022/06/17 13:50:33;;;;;;;;;;;24.20;61.00;;;;;;5001548;28;20008;-79
2022/06/17 13:53:03;;;;;;;;;;;24.20;60.80;;;;;;5000425;28;19928;-79
2022/06/17 13:55:36;;;;;;;;;;;24.20;60.70;;;;;;4999214;28;19961;-79
2022/06/17 13:58:06;;;;;;;;;;;24.20;60.50;;;;;;5001520;28;20370;-79
2022/06/17 14:00:38;;;;;;;;;;;24.20;60.20;;;;;;5000987;28;19969;-79
2022/06/17 14:03:08;;;;;;;;;;;24.20;60.10;;;;;;5002350;28;20399;-79
2022/06/17 14:05:35;;;;;;;;;;;24.20;60.10;;;;;;5001276;28;20028;-79
2022/06/17 14:08:07;;;;;;;;;;;24.20;60.10;;;;;;4997170;28;19928;-75
2022/06/17 14:10:41;;;;;;;;;;;24.20;60.20;;;;;;4995021;28;20294;-75
2022/06/17 14:13:34;;;;;;;;;;;24.20;60.10;;;;;;4994526;28;20377;-76
2022/06/17 14:16:04;;;;;;;;;;;24.20;60.10;;;;;;4948564;28;19922;-75
2022/06/17 14:18:34;;;;;;;;;;;24.20;60.10;;;;;;4994847;28;19921;-76
2022/06/17 14:21:03;;;;;;;;;;;24.20;60.00;;;;;;4994867;28;19922;-76
2022/06/17 14:23:41;;;;;;;;;;;24.20;59.80;;;;;;4994436;28;20348;-77
2022/06/17 14:26:08;;;;;;;;;;;24.20;59.70;;;;;;4995110;28;20008;-78
2022/06/17 14:28:41;;;;;;;;;;;24.20;59.60;;;;;;4995520;28;19922;-78
2022/06/17 14:31:10;;;;;;;;;;;24.20;59.60;;;;;;4994555;28;20012;-78
2022/06/17 14:33:48;;;;;;;;;;;24.20;59.50;;;;;;4994368;28;19921;-78
2022/06/17 14:36:15;;;;;;;;;;;24.20;59.40;;;;;;4994036;28;20028;-78
2022/06/17 14:38:44;;;;;;;;;;;24.20;59.30;;;;;;4995189;28;19928;-78
2022/06/17 14:43:58;;;;;;;;;;;24.20;59.20;;;;;;4995016;28;19981;-78
2022/06/17 14:46:24;;;;;;;;;;;24.20;59.10;;;;;;4994960;28;20448;-78
2022/06/17 14:49:12;;;;;;;;;;;24.20;59.00;;;;;;4995059;28;20296;-77
2022/06/17 14:51:41;;;;;;;;;;;24.20;59.00;;;;;;4994541;28;19922;-77
2022/06/17 14:54:21;;;;;;;;;;;24.20;58.90;;;;;;4994823;28;20043;-77
2022/06/17 14:56:49;;;;;;;;;;;24.20;58.80;;;;;;4994412;28;19922;-77
2022/06/17 14:59:24;;;;;;;;;;;24.20;58.80;;;;;;4994430;28;20006;-77
2022/06/17 15:01:52;;;;;;;;;;;24.20;58.70;;;;;;4994578;28;19932;-77
2022/06/17 15:04:24;;;;;;;;;;;24.20;58.70;;;;;;4996452;28;19922;-78
2022/06/17 15:06:53;;;;;;;;;;;24.20;58.60;;;;;;4998870;28;19929;-78
2022/06/17 15:09:22;;;;;;;;;;;24.20;58.60;;;;;;4998726;28;20409;-78
2022/06/17 15:11:53;;;;;;;;;;;24.20;58.50;;;;;;4998473;28;20373;-78
2022/06/17 15:14:20;;;;;;;;;;;24.20;58.50;;;;;;4998806;28;19925;-78
2022/06/17 15:16:49;;;;;;;;;;;24.20;58.40;;;;;;4999054;28;19928;-78
2022/06/17 15:19:17;;;;;;;;;;;24.20;58.40;;;;;;4999500;28;19928;-78
2022/06/17 15:21:51;;;;;;;;;;;24.20;58.40;;;;;;4999453;28;19922;-78
2022/06/17 15:24:23;;;;;;;;;;;24.20;58.30;;;;;;4999633;28;20020;-78
2022/06/17 15:26:54;;;;;;;;;;;24.20;58.30;;;;;;4999841;28;19926;-78
2022/06/17 15:29:23;;;;;;;;;;;24.20;58.20;;;;;;4999041;28;19925;-78
2022/06/17 15:31:51;;;;;;;;;;;24.20;58.20;;;;;;4980782;28;19921;-77
2022/06/17 15:34:20;;;;;;;;;;;24.20;58.20;;;;;;4997944;28;19921;-78
2022/06/17 15:36:48;;;;;;;;;;;24.20;58.10;;;;;;4998436;28;20380;-77
2022/06/17 15:39:18;;;;;;;;;;;24.20;58.70;;;;;;4999728;28;19921;-78
2022/06/17 15:41:49;;;;;;;;;;;24.20;58.10;;;;;;4998507;28;19969;-78
2022/06/17 15:44:17;;;;;;;;;;;24.20;58.10;;;;;;4998834;28;20297;-78
2022/06/17 15:46:49;;;;;;;;;;;24.20;58.10;;;;;;4998351;28;19922;-78
2022/06/17 15:49:17;;;;;;;;;;;24.20;58.00;;;;;;4998125;28;20020;-77
2022/06/17 15:51:46;;;;;;;;;;;24.20;58.00;;;;;;4997640;28;19965;-77
2022/06/17 15:54:13;;;;;;;;;;;24.20;58.00;;;;;;4998366;28;20293;-78
2022/06/17 15:56:43;;;;;;;;;;;24.20;58.00;;;;;;4997503;28;19922;-78
2022/06/17 15:59:15;;;;;;;;;;;24.20;58.00;;;;;;4998383;28;19922;-78
2022/06/17 16:01:44;;;;;;;;;;;24.20;57.90;;;;;;4997886;28;19922;-78
2022/06/17 16:04:17;;;;;;;;;;;24.20;58.00;;;;;;4997346;28;19933;-78
2022/06/17 16:06:45;;;;;;;;;;;24.20;58.00;;;;;;5002152;28;20008;-80
2022/06/17 16:09:23;;;;;;;;;;;24.20;58.00;;;;;;5003020;28;19929;-79
2022/06/17 16:11:51;;;;;;;;;;;24.20;58.00;;;;;;5002417;28;20016;-79
2022/06/17 16:14:26;;;;;;;;;;;24.20;58.00;;;;;;5003777;28;20004;-81
2022/06/17 16:16:53;;;;;;;;;;;24.20;58.00;;;;;;5001503;28;20036;-81
2022/06/17 16:19:20;;;;;;;;;;;24.20;58.00;;;;;;5002298;28;20016;-81
2022/06/17 16:22:02;;;;;;;;;;;24.20;58.10;;;;;;5002326;28;19984;-82
2022/06/17 16:24:33;;;;;;;;;;;24.20;58.10;;;;;;5002115;28;19964;-82
2022/06/17 16:27:03;;;;;;;;;;;24.20;58.10;;;;;;5002461;28;19929;-82
2022/06/17 16:29:32;;;;;;;;;;;24.20;58.10;;;;;;5002744;28;19968;-82
2022/06/17 16:32:00;;;;;;;;;;;24.20;58.10;;;;;;5002893;28;20012;-82
2022/06/17 16:34:27;;;;;;;;;;;24.20;58.10;;;;;;5001444;28;19921;-82
2022/06/17 16:36:55;;;;;;;;;;;24.20;58.10;;;;;;5001667;28;19965;-81
2022/06/17 16:39:26;;;;;;;;;;;24.10;58.10;;;;;;5002681;28;19932;-82
2022/06/17 16:45:18;;;;;;;;;;;24.20;58.10;;;;;;5002773;28;20010;-81
2022/06/17 16:47:44;;;;;;;;;;;24.10;58.00;;;;;;4999306;28;20004;-80
2022/06/17 16:50:11;;;;;;;;;;;24.10;58.10;;;;;;4998036;28;20004;-80
2022/06/17 16:52:40;;;;;;;;;;;24.10;58.10;;;;;;4999249;28;20292;-80
2022/06/17 16:55:07;;;;;;;;;;;24.10;58.70;;;;;;4999935;28;19922;-80
2022/06/17 16:57:37;;;;;;;;;;;24.10;58.10;;;;;;4999779;28;19928;-80
2022/06/17 17:00:05;;;;;;;;;;;24.10;58.80;;;;;;4999823;28;19922;-81
2022/06/17 17:02:31;;;;;;;;;;;24.10;58.20;;;;;;4998120;28;19967;-80
2022/06/17 17:04:58;;;;;;;;;;;24.10;58.10;;;;;;4998245;28;19928;-79
2022/06/17 17:07:25;;;;;;;;;;;24.10;58.20;;;;;;4999549;28;19957;-80
2022/06/17 17:09:53;;;;;;;;;;;24.20;58.30;;;;;;4998500;28;19948;-79
2022/06/17 17:12:20;;;;;;;;;;;24.10;58.30;;;;;;4997082;28;20304;-79
2022/06/17 17:14:48;;;;;;;;;;;24.10;58.50;;;;;;4996239;28;19922;-81
2022/06/17 17:17:15;;;;;;;;;;;24.20;58.70;;;;;;4995922;28;20016;-81
2022/06/17 17:19:44;;;;;;;;;;;24.20;58.80;;;;;;4995891;28;20345;-83
2022/06/17 17:22:13;;;;;;;;;;;24.20;58.80;;;;;;4996019;28;19925;-81
2022/06/17 17:24:41;;;;;;;;;;;24.20;58.90;;;;;;4996184;28;19922;-80
2022/06/17 17:27:08;;;;;;;;;;;24.30;59.10;;;;;;4996015;28;19922;-80
2022/06/17 17:29:37;;;;;;;;;;;24.20;59.10;;;;;;4995929;28;19928;-81
2022/06/17 17:32:06;;;;;;;;;;;24.20;59.20;;;;;;4995691;28;19922;-81
2022/06/17 17:34:33;;;;;;;;;;;24.20;59.20;;;;;;4995497;28;20004;-82
2022/06/17 17:36:59;;;;;;;;;;;24.20;59.30;;;;;;4996207;28;19928;-82
2022/06/17 17:39:27;;;;;;;;;;;24.20;59.40;;;;;;4996438;28;19921;-79
2022/06/17 17:41:57;;;;;;;;;;;24.20;59.50;;;;;;4996211;28;19921;-79
2022/06/17 17:44:24;;;;;;;;;;;24.20;59.60;;;;;;4996238;28;19968;-80
2022/06/17 17:46:51;;;;;;;;;;;24.20;59.70;;;;;;4996135;28;19921;-80
2022/06/17 17:49:21;;;;;;;;;;;24.20;59.80;;;;;;4996263;28;19921;-80
2022/06/17 17:51:48;;;;;;;;;;;24.20;59.80;;;;;;4996962;28;20049;-81
2022/06/17 17:54:15;;;;;;;;;;;24.20;59.90;;;;;;4996729;28;19921;-79
2022/06/17 17:56:43;;;;;;;;;;;24.20;60.00;;;;;;4996217;28;20024;-79
2022/06/17 17:59:12;;;;;;;;;;;24.20;59.80;;;;;;4996902;28;19921;-78
2022/06/17 18:01:40;;;;;;;;;;;24.10;59.70;;;;;;4997138;28;19921;-78
2022/06/17 18:04:07;;;;;;;;;;;24.10;59.60;;;;;;4996943;28;19925;-80
2022/06/17 18:06:36;;;;;;;;;;;24.10;59.50;;;;;;4997159;28;19928;-80
2022/06/17 18:09:03;;;;;;;;;;;24.10;59.40;;;;;;4996971;28;20426;-80
2022/06/17 18:11:32;;;;;;;;;;;24.00;59.30;;;;;;4996973;28;19928;-80
2022/06/17 18:14:01;;;;;;;;;;;24.00;59.10;;;;;;4997233;28;20288;-80
2022/06/17 18:16:28;;;;;;;;;;;24.00;59.00;;;;;;4996981;28;19922;-80
2022/06/17 18:18:55;;;;;;;;;;;24.00;58.90;;;;;;4997225;28;20013;-82
2022/06/17 18:21:25;;;;;;;;;;;24.00;58.80;;;;;;4996831;28;19944;-81
2022/06/17 18:23:54;;;;;;;;;;;24.00;58.70;;;;;;4997085;28;19922;-81
2022/06/17 18:26:21;;;;;;;;;;;24.00;58.60;;;;;;4996704;28;20038;-80
2022/06/17 18:28:48;;;;;;;;;;;24.00;58.50;;;;;;4997273;28;20362;-80
2022/06/17 18:31:15;;;;;;;;;;;24.00;58.40;;;;;;4996652;28;19930;-80
2022/06/17 18:33:42;;;;;;;;;;;24.00;58.40;;;;;;4996198;28;19922;-81
2022/06/17 18:36:13;;;;;;;;;;;24.00;58.30;;;;;;4995692;28;20300;-81
2022/06/17 18:38:40;;;;;;;;;;;24.00;58.20;;;;;;4995548;28;19984;-80
2022/06/17 18:42:36;;;;;;;;;;;24.00;58.20;;;;;;4996802;28;19922;-80
2022/06/17 18:43:53;;;;;;;;;;;24.00;58.10;;;;;;4996247;28;20296;-81
2022/06/17 18:46:20;;;;;;;;;;;24.00;58.10;;;;;;4997450;28;20369;-80
2022/06/17 18:48:47;;;;;;;;;;;24.00;58.10;;;;;;4996551;28;20016;-78
2022/06/17 18:51:13;;;;;;;;;;;24.00;58.00;;;;;;4994789;28;20016;-78
2022/06/17 18:53:40;;;;;;;;;;;24.00;58.00;;;;;;4994559;28;19928;-78
2022/06/17 18:56:09;;;;;;;;;;;24.00;58.00;;;;;;4994449;28;20020;-78
2022/06/17 18:58:36;;;;;;;;;;;24.00;57.90;;;;;;4994168;28;19922;-78
2022/06/17 19:01:05;;;;;;;;;;;24.00;57.90;;;;;;4994147;28;20408;-78
2022/06/17 19:03:33;;;;;;;;;;;24.00;57.90;;;;;;4994059;28;20389;-78
2022/06/17 19:06:00;;;;;;;;;;;24.00;57.80;;;;;;4994489;28;19922;-78
2022/06/17 19:19:38;;;;;;;;;;;23.90;57.60;;;;;;4994422;28;20029;-79
2022/06/17 19:22:07;;;;;;;;;;;24.00;57.80;;;;;;4994166;28;20373;-79
2022/06/17 19:24:34;;;;;;;;;;;23.90;57.70;;;;;;4994329;28;19961;-78
2022/06/17 19:27:02;;;;;;;;;;;23.90;57.80;;;;;;4993934;28;20008;-77
2022/06/17 19:29:30;;;;;;;;;;;24.00;58.00;;;;;;4993706;28;19922;-77
2022/06/17 19:31:57;;;;;;;;;;;24.00;58.00;;;;;;4993451;28;20401;-77
2022/06/17 19:34:26;;;;;;;;;;;23.90;57.90;;;;;;4993431;28;20032;-78
2022/06/17 19:36:53;;;;;;;;;;;24.00;58.10;;;;;;4993644;28;19926;-78
2022/06/17 19:39:20;;;;;;;;;;;24.00;58.20;;;;;;4994208;28;19928;-78
2022/06/17 19:41:51;;;;;;;;;;;24.00;58.20;;;;;;4994298;28;19921;-77
2022/06/17 19:44:21;;;;;;;;;;;24.00;58.30;;;;;;4994257;28;19945;-77
2022/06/17 19:46:49;;;;;;;;;;;24.00;58.30;;;;;;4993698;28;19921;-77
2022/06/17 19:49:17;;;;;;;;;;;23.90;58.30;;;;;;4995754;28;19922;-80
2022/06/17 19:51:44;;;;;;;;;;;24.00;58.40;;;;;;4998047;28;20400;-80
2022/06/17 19:54:12;;;;;;;;;;;24.00;58.50;;;;;;5053280;23;20241;-77
2022/06/17 19:56:44;;;;;;;;;;;24.00;58.60;;;;;;4999577;28;20360;-77
2022/06/17 19:59:11;;;;;;;;;;;24.00;58.60;;;;;;4999790;28;19928;-77
2022/06/17 20:01:41;;;;;;;;;;;24.00;58.70;;;;;;4997554;28;19979;-78
2022/06/17 20:04:14;;;;;;;;;;;24.00;58.80;;;;;;4998628;28;19967;-79
2022/06/17 20:06:40;;;;;;;;;;;23.90;58.70;;;;;;4999259;28;20366;-79
2022/06/17 20:09:07;;;;;;;344.55;35.17;;;23.90;58.70;;;;;;4999314;28;20485;-81
2022/06/17 20:11:34;;;;;;;129.57;14.60;;;24.40;62.60;;;;;;5002568;28;20205;-81
2022/06/17 20:14:01;;;;;;;65.68;10.60;;;25.00;56.00;;;;;;4998507;28;20233;-79
2022/06/17 20:16:29;;;;;;;46.30;9.35;;;25.20;54.50;;;;;;4997271;28;20281;-79
2022/06/17 20:18:57;;;;;;;17.50;4.60;;;25.30;53.70;;;;;;5000824;28;20225;-82
2022/06/17 20:21:24;;;;;;;18.80;4.80;;;25.40;53.20;;;;;;5001442;28;20265;-81
2022/06/17 20:23:53;;;;;;;18.80;4.20;;;25.40;52.90;;;;;;4999992;28;20756;-81
2022/06/17 20:26:20;;;;;;;9.10;3.22;;;25.40;52.80;;;;;;5000561;28;20221;-81
2022/06/17 20:28:47;;;;;;;13.43;3.47;;;25.40;52.50;;;;;;5001089;28;20226;-82
2022/06/17 20:31:14;;;;;;;4.47;2.58;;;25.40;52.50;;;;;;5000949;28;20252;-82
2022/06/17 20:33:41;;;;;;;4.07;2.13;;;25.40;52.40;;;;;;5001061;28;20202;-82
2022/06/17 20:36:12;;;;;;;6.43;2.22;;;25.40;52.30;;;;;;5000113;28;20198;-82
2022/06/17 20:38:41;;;;;;;3.30;2.35;;;25.40;52.30;;;;;;5000207;28;20210;-82
2022/06/17 20:41:11;;;;;;;1.55;1.52;;;25.40;52.30;;;;;;4999920;28;20206;-79
2022/06/17 20:43:42;;;;;;;4.38;1.67;;;25.40;52.30;;;;;;4998213;28;20304;-79
2022/06/17 20:51:41;;;;;;;1.70;1.60;;;25.40;52.50;;;;;;4999348;28;20259;-79
2022/06/17 20:54:11;;;;;;;1.85;1.40;;;25.40;52.50;;;;;;4998453;28;20230;-79
2022/06/17 20:58:08;;;;;;;1.27;1.27;;;25.40;52.60;;;;;;4998342;28;20260;-79
2022/06/17 20:59:24;;;;;;;1.45;1.45;;;25.40;52.70;;;;;;4996480;28;20260;-78
2022/06/17 21:01:52;;;;;;;1.35;1.13;;;25.40;52.80;;;;;;4994925;28;20194;-78